createdAt,value
2022-09-12T00:02:23.889Z,97661.29
2022-09-12T00:04:55.241Z,97662.96
2022-09-12T00:07:26.324Z,97662.27
2022-09-12T00:09:57.385Z,97662.55
2022-09-12T00:12:28.344Z,97660.25
2022-09-12T00:15:00.661Z,97656.25
2022-09-12T00:17:31.491Z,97651.50
2022-09-12T00:20:02.787Z,97648.25
2022-09-12T00:22:33.960Z,97646.92
2022-09-12T00:25:06.015Z,97643.30
2022-09-12T00:27:36.964Z,97647.80
2022-09-12T00:30:09.759Z,97653.23
2022-09-12T00:32:40.620Z,97660.06
2022-09-12T00:35:11.666Z,97656.33
2022-09-12T00:37:42.717Z,97659.06
2022-09-12T00:40:13.980Z,97653.86
2022-09-12T00:42:44.752Z,97655.55
2022-09-12T00:45:25.549Z,97650.26
2022-09-12T00:47:58.392Z,97643.87
2022-09-12T00:50:29.685Z,97648.19
2022-09-12T00:53:05.445Z,97649.39
2022-09-12T00:55:41.503Z,97645.31
2022-09-12T00:58:15.969Z,97644.67
2022-09-12T01:00:47.516Z,97647.15
2022-09-12T01:03:20.809Z,97646.55
2022-09-12T01:06:00.644Z,97646.12
2022-09-12T01:08:34.158Z,97654.28
2022-09-12T01:11:05.404Z,97657.65
2022-09-12T01:13:37.568Z,97656.17
2022-09-12T01:16:09.950Z,97649.75
2022-09-12T01:18:52.562Z,97650.63
2022-09-12T01:21:34.992Z,97649.79
2022-09-12T01:24:28.966Z,97646.81
2022-09-12T01:27:20.424Z,97644.48
2022-09-12T01:30:30.194Z,97642.30
2022-09-12T01:33:21.801Z,97648.84
2022-09-12T01:36:04.640Z,97646.30
2022-09-12T01:38:40.716Z,97643.77
2022-09-12T01:41:23.682Z,97644.79
2022-09-12T01:44:03.164Z,97643.62
2022-09-12T01:46:39.441Z,97639.97
2022-09-12T01:49:17.024Z,97637.32
2022-09-12T01:51:57.022Z,97636.41
2022-09-12T01:54:31.816Z,97640.64
2022-09-12T01:57:09.878Z,97644.20
2022-09-12T01:59:46.280Z,97642.71
2022-09-12T02:02:21.584Z,97641.09
2022-09-12T02:04:59.729Z,97641.45
2022-09-12T02:07:37.364Z,97640.17
2022-09-12T02:10:13.681Z,97627.05
2022-09-12T02:12:47.551Z,97637.03
2022-09-12T02:15:24.849Z,97635.05
2022-09-12T02:17:59.296Z,97633.70
2022-09-12T02:20:47.885Z,97631.93
2022-09-12T02:23:23.706Z,97631.48
2022-09-12T02:25:58.815Z,97630.95
2022-09-12T02:28:35.736Z,97631.83
2022-09-12T02:31:18.441Z,97634.63
2022-09-12T02:33:59.105Z,97632.53
2022-09-12T02:36:40.234Z,97629.84
2022-09-12T02:39:11.612Z,97628.27
2022-09-12T02:41:42.583Z,97632.80
2022-09-12T02:44:11.996Z,97625.04
2022-09-12T02:46:47.489Z,97632.58
2022-09-12T02:49:18.629Z,97630.41
2022-09-12T02:51:50.875Z,97627.89
2022-09-12T02:54:22.210Z,97629.99
2022-09-12T02:56:53.096Z,97626.46
2022-09-12T02:59:26.443Z,97628.06
2022-09-12T03:02:14.704Z,97628.69
2022-09-12T03:05:03.236Z,97628.66
2022-09-12T03:07:51.217Z,97633.45
2022-09-12T03:10:29.713Z,97636.23
2022-09-12T03:13:19.638Z,97635.12
2022-09-12T03:16:04.240Z,97632.45
2022-09-12T03:18:47.517Z,97635.55
2022-09-12T03:21:27.435Z,97633.60
2022-09-12T03:24:10.441Z,97632.78
2022-09-12T03:26:45.766Z,97626.49
2022-09-12T03:29:19.548Z,97630.22
2022-09-12T03:31:58.335Z,97629.88
2022-09-12T03:34:30.295Z,97628.45
2022-09-12T03:37:01.302Z,97634.34
2022-09-12T03:39:32.315Z,97629.49
2022-09-12T03:42:03.284Z,97630.30
2022-09-12T03:44:34.264Z,97629.13
2022-09-12T03:47:10.560Z,97630.34
2022-09-12T03:49:42.211Z,97628.88
2022-09-12T03:52:13.181Z,97631.48
2022-09-12T03:54:42.663Z,97626.80
2022-09-12T03:57:11.916Z,97628.18
2022-09-12T03:59:43.127Z,97628.34
2022-09-12T04:02:14.170Z,97634.17
2022-09-12T04:04:49.037Z,97629.55
2022-09-12T04:07:19.876Z,97632.73
2022-09-12T04:09:51.075Z,97636.70
2022-09-12T04:12:21.926Z,97636.98
2022-09-12T04:14:52.634Z,97639.34
2022-09-12T04:17:23.615Z,97643.66
2022-09-12T04:19:54.454Z,97646.41
2022-09-12T04:22:25.746Z,97647.32
2022-09-12T04:24:56.882Z,97649.89
2022-09-12T04:27:28.400Z,97649.41
2022-09-12T04:30:00.215Z,97643.59
2022-09-12T04:32:32.285Z,97648.87
2022-09-12T04:35:03.309Z,97653.48
2022-09-12T04:37:34.282Z,97649.13
2022-09-12T04:40:06.136Z,97646.05
2022-09-12T04:42:36.901Z,97644.79
2022-09-12T04:45:09.545Z,97641.90
2022-09-12T04:47:40.297Z,97642.70
2022-09-12T04:50:12.530Z,97634.58
2022-09-12T04:52:43.628Z,97635.22
2022-09-12T04:55:14.747Z,97634.77
2022-09-12T04:57:45.509Z,97641.09
2022-09-12T05:00:15.630Z,97644.83
2022-09-12T05:02:46.526Z,97649.77
2022-09-12T05:05:16.033Z,97647.61
2022-09-12T05:07:45.279Z,97649.17
2022-09-12T05:10:16.553Z,97655.14
2022-09-12T05:12:48.400Z,97656.80
2022-09-12T05:15:19.133Z,97657.41
2022-09-12T05:17:50.112Z,97655.24
2022-09-12T05:20:21.708Z,97655.39
2022-09-12T05:22:52.964Z,97657.54
2022-09-12T05:25:23.849Z,97651.86
2022-09-12T05:27:56.938Z,97654.98
2022-09-12T05:30:28.175Z,97657.20
2022-09-12T05:32:59.380Z,97658.59
2022-09-12T05:35:30.236Z,97666.48
2022-09-12T05:38:01.023Z,97661.70
2022-09-12T05:40:30.821Z,97664.88
2022-09-12T05:43:02.219Z,97661.73
2022-09-12T05:45:33.758Z,97662.45
2022-09-12T05:48:05.470Z,97659.92
2022-09-12T05:50:36.239Z,97662.75
2022-09-12T05:53:08.733Z,97665.95
2022-09-12T05:55:41.952Z,97671.45
2022-09-12T05:58:13.274Z,97671.34
2022-09-12T06:00:44.321Z,97670.30
2022-09-12T06:03:15.304Z,97670.81
2022-09-12T06:05:50.482Z,97668.71
2022-09-12T06:08:21.669Z,97673.02
2022-09-12T06:10:52.827Z,97674.52
2022-09-12T06:13:23.802Z,97676.63
2022-09-12T06:15:55.227Z,97674.52
2022-09-12T06:18:26.275Z,97677.41
2022-09-12T06:20:57.488Z,97683.38
2022-09-12T06:23:27.980Z,97686.84
2022-09-12T06:25:58.842Z,97692.13
2022-09-12T06:28:29.925Z,97687.92
2022-09-12T06:31:06.438Z,97690.36
2022-09-12T06:33:36.705Z,97691.75
2022-09-12T06:36:12.554Z,97692.23
2022-09-12T06:38:44.435Z,97693.55
2022-09-12T06:41:16.635Z,97692.73
2022-09-12T06:43:47.487Z,97692.71
2022-09-12T06:46:19.135Z,97692.27
2022-09-12T06:48:51.075Z,97696.89
2022-09-12T06:51:22.751Z,97700.89
2022-09-12T06:53:55.935Z,97703.45
2022-09-12T06:56:28.651Z,97704.75
2022-09-12T06:59:00.548Z,97700.23
2022-09-12T07:01:33.264Z,97699.44
2022-09-12T07:04:05.793Z,97695.82
2022-09-12T07:06:41.080Z,97696.91
2022-09-12T07:09:16.419Z,97696.05
2022-09-12T07:11:48.048Z,97703.10
2022-09-12T07:14:19.153Z,97706.45
2022-09-12T07:16:50.509Z,97712.20
2022-09-12T07:19:21.314Z,97706.48
2022-09-12T07:21:57.947Z,97711.02
2022-09-12T07:24:30.271Z,97706.41
2022-09-12T07:27:01.215Z,97712.69
2022-09-12T07:29:36.986Z,97715.58
2022-09-12T07:32:09.323Z,97707.70
2022-09-12T07:34:40.443Z,97702.48
2022-09-12T07:37:11.726Z,97705.19
2022-09-12T07:39:43.010Z,97705.98
2022-09-12T07:42:14.772Z,97705.48
2022-09-12T07:44:46.285Z,97709.36
2022-09-12T07:47:18.186Z,97711.83
2022-09-12T07:49:49.066Z,97714.15
2022-09-12T07:52:20.230Z,97710.95
2022-09-12T07:54:51.425Z,97712.23
2022-09-12T07:57:22.445Z,97717.50
2022-09-12T07:59:53.576Z,97723.03
2022-09-12T08:02:24.567Z,97713.90
2022-09-12T08:04:55.340Z,97719.59
2022-09-12T08:07:26.569Z,97720.72
2022-09-12T08:09:57.603Z,97723.67
2022-09-12T08:12:28.446Z,97724.06
2022-09-12T08:15:00.121Z,97724.27
2022-09-12T08:17:31.750Z,97727.88
2022-09-12T08:20:03.006Z,97734.64
2022-09-12T08:22:34.681Z,97728.94
2022-09-12T08:25:08.946Z,97726.23
2022-09-12T08:27:39.806Z,97726.69
2022-09-12T08:30:12.973Z,97722.93
2022-09-12T08:32:44.272Z,97725.45
2022-09-12T08:35:15.696Z,97723.63
2022-09-12T08:37:46.790Z,97722.25
2022-09-12T08:40:19.928Z,97715.44
2022-09-12T08:43:02.469Z,97713.52
2022-09-12T08:45:38.093Z,97712.25
2022-09-12T08:48:13.752Z,97715.92
2022-09-12T08:50:49.762Z,97720.13
2022-09-12T08:53:26.072Z,97711.55
2022-09-12T08:56:00.576Z,97718.31
2022-09-12T08:58:37.662Z,97714.98
2022-09-12T09:01:15.441Z,97711.11
2022-09-12T09:03:58.813Z,97714.05
2022-09-12T09:06:54.008Z,97709.16
2022-09-12T09:09:39.859Z,97703.84
2022-09-12T09:12:20.031Z,97698.19
2022-09-12T09:15:06.049Z,97702.20
2022-09-12T09:17:42.794Z,97705.31
2022-09-12T09:20:24.234Z,97708.30
2022-09-12T09:22:59.887Z,97707.32
2022-09-12T09:25:42.348Z,97708.42
2022-09-12T09:28:21.008Z,97705.95
2022-09-12T09:30:52.312Z,97702.82
2022-09-12T09:33:27.561Z,97699.27
2022-09-12T09:36:14.167Z,97701.45
2022-09-12T09:38:51.246Z,97702.23
2022-09-12T09:41:37.395Z,97707.80
2022-09-12T09:46:44.234Z,97709.88
2022-09-12T09:49:18.061Z,97711.09
2022-09-12T09:51:49.463Z,97710.55
2022-09-12T09:54:25.704Z,97709.55
2022-09-12T09:56:57.364Z,97705.35
2022-09-12T09:59:31.337Z,97702.50
2022-09-12T10:02:05.408Z,97702.81
2022-09-12T10:04:41.507Z,97699.93
2022-09-12T10:07:21.811Z,97700.14
2022-09-12T10:10:08.312Z,97697.86
2022-09-12T10:12:39.904Z,97697.36
2022-09-12T10:15:20.734Z,97698.95
2022-09-12T10:17:53.664Z,97695.48
2022-09-12T10:20:37.281Z,97702.03
2022-09-12T10:23:30.691Z,97697.33
2022-09-12T10:26:04.871Z,97694.62
2022-09-12T10:28:40.001Z,97695.33
2022-09-12T10:31:16.732Z,97696.27
2022-09-12T10:33:52.817Z,97697.78
2022-09-12T10:36:24.375Z,97696.71
2022-09-12T10:38:58.286Z,97695.36
2022-09-12T10:41:36.240Z,97698.31
2022-09-12T10:44:17.002Z,97697.84
2022-09-12T10:46:48.842Z,97695.36
2022-09-12T10:49:28.693Z,97695.83
2022-09-12T10:52:16.512Z,97698.98
2022-09-12T10:54:47.949Z,97699.95
2022-09-12T10:57:38.284Z,97699.41
2022-09-12T11:00:17.100Z,97700.42
2022-09-12T11:02:59.494Z,97697.06
2022-09-12T11:05:42.974Z,97698.09
2022-09-12T11:08:35.549Z,97702.35
2022-09-12T11:11:14.923Z,97704.20
2022-09-12T11:14:01.256Z,97703.38
2022-09-12T11:16:42.103Z,97703.35
2022-09-12T11:19:38.869Z,97704.33
2022-09-12T11:22:28.649Z,97700.04
2022-09-12T11:25:21.077Z,97695.91
2022-09-12T11:28:17.356Z,97700.58
2022-09-12T11:30:59.900Z,97699.50
2022-09-12T11:33:39.700Z,97695.92
2022-09-12T11:36:28.072Z,97695.64
2022-09-12T11:39:11.592Z,97693.52
2022-09-12T11:41:44.783Z,97692.03
2022-09-12T11:44:21.959Z,97696.34
2022-09-12T11:46:53.011Z,97695.36
2022-09-12T11:49:35.753Z,97694.30
2022-09-12T11:52:14.587Z,97692.80
2022-09-12T11:54:53.497Z,97691.33
2022-09-12T11:57:32.230Z,97693.14
2022-09-12T12:00:07.965Z,97689.89
2022-09-12T12:02:49.394Z,97688.01
2022-09-12T12:05:25.820Z,97683.64
2022-09-12T12:07:55.913Z,97687.00
2022-09-12T12:10:33.082Z,97684.69
2022-09-12T12:13:13.309Z,97684.99
2022-09-12T12:15:49.581Z,97684.85
2022-09-12T12:18:23.890Z,97684.44
2022-09-12T12:20:56.830Z,97682.17
2022-09-12T12:23:31.353Z,97682.81
2022-09-12T12:26:04.544Z,97681.13
2022-09-12T12:29:02.556Z,97674.65
2022-09-12T12:31:53.753Z,97677.84
2022-09-12T12:34:31.360Z,97677.68
2022-09-12T12:37:40.984Z,97676.41
2022-09-12T12:40:22.628Z,97676.92
2022-09-12T12:43:31.603Z,97674.66
2022-09-12T12:46:06.070Z,97674.80
2022-09-12T12:49:11.645Z,97671.77
2022-09-12T12:52:01.494Z,97671.73
2022-09-12T12:54:50.914Z,97670.58
2022-09-12T12:57:39.461Z,97672.56
2022-09-12T13:00:28.245Z,97669.30
2022-09-12T13:03:02.605Z,97671.72
2022-09-12T13:05:42.663Z,97669.85
2022-09-12T13:08:31.730Z,97666.48
2022-09-12T13:11:08.772Z,97661.85
2022-09-12T13:13:48.301Z,97663.67
2022-09-12T13:16:42.329Z,97663.65
2022-09-12T13:19:19.775Z,97661.17
2022-09-12T13:22:01.098Z,97660.59
2022-09-12T13:24:32.361Z,97654.06
2022-09-12T13:27:04.590Z,97657.15
2022-09-12T13:29:35.938Z,97657.44
2022-09-12T13:32:07.471Z,97656.97
2022-09-12T13:34:45.760Z,97655.84
2022-09-12T13:37:33.543Z,97655.18
2022-09-12T13:40:17.686Z,97652.79
2022-09-12T13:42:50.942Z,97651.66
2022-09-12T13:45:24.737Z,97649.49
2022-09-12T13:47:58.997Z,97648.27
2022-09-12T13:50:32.673Z,97636.86
2022-09-12T13:53:07.080Z,97639.32
2022-09-12T13:55:41.636Z,97634.71
2022-09-12T13:58:21.581Z,97629.05
2022-09-12T14:01:07.351Z,97631.80
2022-09-12T14:04:01.781Z,97627.39
2022-09-12T14:06:44.844Z,97631.42
2022-09-12T14:09:32.152Z,97631.00
2022-09-12T14:12:03.521Z,97628.67
2022-09-12T14:14:37.589Z,97629.71
2022-09-12T14:17:23.804Z,97622.42
2022-09-12T14:19:55.065Z,97618.86
2022-09-12T14:22:28.319Z,97613.02
2022-09-12T14:25:02.077Z,97614.41
2022-09-12T14:27:39.972Z,97612.67
2022-09-12T14:30:24.290Z,97610.61
2022-09-12T14:33:22.189Z,97611.98
2022-09-12T14:36:08.361Z,97613.11
2022-09-12T14:38:42.517Z,97614.23
2022-09-12T14:41:15.408Z,97610.98
2022-09-12T14:43:52.132Z,97613.17
2022-09-12T14:46:28.599Z,97611.36
2022-09-12T14:49:03.433Z,97612.81
2022-09-12T14:51:39.286Z,97616.59
2022-09-12T14:54:38.792Z,97609.98
2022-09-12T14:57:36.794Z,97607.64
2022-09-12T15:00:24.526Z,97606.29
2022-09-12T15:02:55.975Z,97606.70
2022-09-12T15:05:29.766Z,97605.55
2022-09-12T15:08:04.357Z,97605.17
2022-09-12T15:10:38.297Z,97606.12
2022-09-12T15:13:21.463Z,97603.98
2022-09-12T15:15:55.908Z,97600.81
2022-09-12T15:18:28.957Z,97596.27
2022-09-12T15:21:04.736Z,97600.95
2022-09-12T15:23:40.260Z,97598.41
2022-09-12T15:26:13.296Z,97596.13
2022-09-12T15:28:44.534Z,97595.98
2022-09-12T15:31:26.310Z,97594.92
2022-09-12T15:33:59.148Z,97594.83
2022-09-12T15:36:30.374Z,97596.86
2022-09-12T15:39:01.175Z,97598.02
2022-09-12T15:41:35.671Z,97595.98
2022-09-12T15:44:09.363Z,97592.41
2022-09-12T15:46:40.552Z,97591.91
2022-09-12T15:49:12.010Z,97588.83
2022-09-12T15:51:42.907Z,97588.06
2022-09-12T15:54:16.284Z,97590.23
2022-09-12T15:56:47.214Z,97590.60
2022-09-12T15:59:18.319Z,97590.02
2022-09-12T16:01:49.859Z,97588.20
2022-09-12T16:04:25.049Z,97588.33
2022-09-12T16:06:57.523Z,97585.79
2022-09-12T16:09:28.901Z,97581.36
2022-09-12T16:11:59.913Z,97581.96
2022-09-12T16:14:31.035Z,97586.11
2022-09-12T16:17:01.796Z,97588.91
2022-09-12T16:19:33.403Z,97586.42
2022-09-12T16:22:04.299Z,97585.54
2022-09-12T16:24:35.530Z,97582.40
2022-09-12T16:27:07.042Z,97591.61
2022-09-12T16:29:38.447Z,97588.58
2022-09-12T16:32:09.591Z,97584.17
2022-09-12T16:34:40.678Z,97587.89
2022-09-12T16:37:11.635Z,97588.05
2022-09-12T16:39:43.067Z,97583.89
2022-09-12T16:42:13.962Z,97582.59
2022-09-12T16:44:44.982Z,97583.16
2022-09-12T16:47:16.456Z,97579.49
2022-09-12T16:49:47.440Z,97583.17
2022-09-12T16:52:19.391Z,97585.05
2022-09-12T16:54:51.024Z,97583.95
2022-09-12T16:57:22.900Z,97585.11
2022-09-12T16:59:54.471Z,97585.11
2022-09-12T17:02:25.472Z,97582.46
2022-09-12T17:05:02.588Z,97580.16
2022-09-12T17:07:34.700Z,97579.83
2022-09-12T17:10:06.515Z,97578.00
2022-09-12T17:12:39.037Z,97577.36
2022-09-12T17:15:14.966Z,97579.98
2022-09-12T17:18:15.269Z,97574.10
2022-09-12T17:20:46.495Z,97580.60
2022-09-12T17:23:18.266Z,97590.02
2022-09-12T17:25:57.020Z,97589.60
2022-09-12T17:28:29.204Z,97589.58
2022-09-12T17:31:01.793Z,97596.56
2022-09-12T17:33:33.263Z,97596.11
2022-09-12T17:36:06.168Z,97597.06
2022-09-12T17:38:38.084Z,97597.63
2022-09-12T17:41:11.754Z,97602.88
2022-09-12T17:43:42.798Z,97603.11
2022-09-12T17:46:14.099Z,97605.26
2022-09-12T17:48:45.178Z,97606.59
2022-09-12T17:51:18.146Z,97600.81
2022-09-12T17:53:49.623Z,97601.29
2022-09-12T17:56:29.876Z,97600.84
2022-09-12T17:59:02.512Z,97600.27
2022-09-12T18:01:51.971Z,97606.13
2022-09-12T18:04:23.272Z,97604.17
2022-09-12T18:06:55.226Z,97603.29
2022-09-12T18:09:26.720Z,97600.13
2022-09-12T18:11:57.799Z,97601.88
2022-09-12T18:14:29.261Z,97603.72
2022-09-12T18:17:00.311Z,97603.66
2022-09-12T18:19:32.054Z,97608.58
2022-09-12T18:22:03.581Z,97604.46
2022-09-12T18:24:34.640Z,97603.89
2022-09-12T18:27:06.745Z,97603.73
2022-09-12T18:29:37.598Z,97603.66
2022-09-12T18:32:06.948Z,97604.68
2022-09-12T18:34:38.150Z,97606.28
2022-09-12T18:37:08.342Z,97603.34
2022-09-12T18:39:42.701Z,97606.21
2022-09-12T18:42:13.747Z,97601.95
2022-09-12T18:44:45.004Z,97606.06
2022-09-12T18:47:16.738Z,97604.56
2022-09-12T18:49:47.504Z,97602.48
2022-09-12T18:52:19.147Z,97604.05
2022-09-12T18:54:50.204Z,97604.02
2022-09-12T18:57:19.509Z,97605.51
2022-09-12T18:59:53.023Z,97606.77
2022-09-12T19:02:28.432Z,97611.71
2022-09-12T19:04:59.866Z,97610.95
2022-09-12T19:07:31.691Z,97611.52
2022-09-12T19:10:02.731Z,97606.55
2022-09-12T19:12:33.844Z,97604.09
2022-09-12T19:15:05.369Z,97602.42
2022-09-12T19:17:36.455Z,97606.60
2022-09-12T19:20:08.272Z,97608.05
2022-09-12T19:22:39.576Z,97609.90
2022-09-12T19:25:21.470Z,97608.34
2022-09-12T19:27:52.414Z,97605.83
2022-09-12T19:30:23.391Z,97604.84
2022-09-12T19:32:54.677Z,97608.11
2022-09-12T19:35:25.439Z,97608.80
2022-09-12T19:37:56.785Z,97605.86
2022-09-12T19:40:28.009Z,97609.80
2022-09-12T19:42:58.942Z,97609.20
2022-09-12T19:45:30.122Z,97607.88
2022-09-12T19:48:01.261Z,97607.51
2022-09-12T19:50:34.231Z,97602.05
2022-09-12T19:53:05.186Z,97601.48
2022-09-12T19:55:37.255Z,97601.81
2022-09-12T19:58:08.638Z,97599.58
2022-09-12T20:00:39.729Z,97601.02
2022-09-12T20:03:10.491Z,97599.56
2022-09-12T20:05:42.743Z,97602.54
2022-09-12T20:08:14.422Z,97603.79
2022-09-12T20:10:45.672Z,97604.08
2022-09-12T20:13:16.539Z,97603.27
2022-09-12T20:15:45.988Z,97602.23
2022-09-12T20:18:17.519Z,97602.91
2022-09-12T20:20:49.019Z,97601.28
2022-09-12T20:23:19.893Z,97598.31
2022-09-12T20:25:51.362Z,97597.50
2022-09-12T20:28:22.291Z,97595.95
2022-09-12T20:30:51.754Z,97597.07
2022-09-12T20:33:21.238Z,97596.50
2022-09-12T20:35:52.329Z,97593.35
2022-09-12T20:38:23.271Z,97591.55
2022-09-12T20:40:54.143Z,97591.44
2022-09-12T20:43:23.543Z,97589.40
2022-09-12T20:45:54.667Z,97589.59
2022-09-12T20:48:25.719Z,97591.05
2022-09-12T20:50:59.208Z,97589.92
2022-09-12T20:53:34.848Z,97590.52
2022-09-12T20:56:07.397Z,97592.42
2022-09-12T20:58:43.034Z,97594.55
2022-09-12T21:01:17.069Z,97594.92
2022-09-12T21:03:48.249Z,97596.59
2022-09-12T21:06:20.120Z,97595.69
2022-09-12T21:08:51.559Z,97597.95
2022-09-12T21:11:23.228Z,97594.56
2022-09-12T21:13:54.365Z,97592.05
2022-09-12T21:16:25.881Z,97589.23
2022-09-12T21:18:58.577Z,97593.20
2022-09-12T21:21:29.657Z,97595.56
2022-09-12T21:24:03.722Z,97594.15
2022-09-12T21:26:35.174Z,97595.27
2022-09-12T21:29:06.352Z,97594.39
2022-09-12T21:31:37.561Z,97596.51
2022-09-12T21:34:08.558Z,97597.33
2022-09-12T21:36:38.239Z,97591.85
2022-09-12T21:39:09.126Z,97590.33
2022-09-12T21:41:40.564Z,97584.09
2022-09-12T21:44:11.623Z,97580.59
2022-09-12T21:46:42.594Z,97581.79
2022-09-12T21:49:13.589Z,97581.91
2022-09-12T21:51:44.259Z,97578.30
2022-09-12T21:54:15.367Z,97577.16
2022-09-12T21:56:44.578Z,97576.27
2022-09-12T21:59:15.503Z,97574.91
2022-09-12T22:01:45.170Z,97577.24
2022-09-12T22:04:16.327Z,97576.73
2022-09-12T22:06:47.502Z,97580.05
2022-09-12T22:09:18.779Z,97583.52
2022-09-12T22:11:49.995Z,97582.73
2022-09-12T22:14:21.342Z,97575.77
2022-09-12T22:16:52.678Z,97576.26
2022-09-12T22:19:23.760Z,97573.62
2022-09-12T22:22:12.238Z,97570.95
2022-09-12T22:24:43.294Z,97570.65
2022-09-12T22:27:14.372Z,97569.83
2022-09-12T22:29:46.266Z,97569.14
2022-09-12T22:32:17.339Z,97566.69
2022-09-12T22:34:46.841Z,97561.19
2022-09-12T22:37:17.941Z,97556.15
2022-09-12T22:39:48.943Z,97553.48
2022-09-12T22:42:19.985Z,97554.77
2022-09-12T22:44:49.512Z,97551.27
2022-09-12T22:47:20.143Z,97552.34
2022-09-12T22:49:50.791Z,97555.95
2022-09-12T22:52:20.259Z,97556.05
2022-09-12T22:54:51.466Z,97552.02
2022-09-12T22:57:22.655Z,97552.56
2022-09-12T22:59:53.633Z,97552.23
2022-09-12T23:02:24.459Z,97547.56
2022-09-12T23:04:55.443Z,97539.94
2022-09-12T23:07:24.898Z,97540.33
2022-09-12T23:09:55.633Z,97537.85
2022-09-12T23:12:29.082Z,97538.40
2022-09-12T23:15:02.615Z,97541.33
2022-09-12T23:17:35.086Z,97537.88
2022-09-12T23:20:07.265Z,97531.89
2022-09-12T23:22:39.518Z,97533.27
2022-09-12T23:25:11.866Z,97536.61
2022-09-12T23:27:43.456Z,97536.55
2022-09-12T23:30:21.664Z,97536.14
2022-09-12T23:32:54.048Z,97535.31
2022-09-12T23:35:23.418Z,97526.48
2022-09-12T23:37:54.393Z,97524.94
2022-09-12T23:40:25.362Z,97526.73
2022-09-12T23:42:54.669Z,97521.23
2022-09-12T23:45:25.730Z,97520.91
2022-09-12T23:47:56.596Z,97521.85
2022-09-12T23:50:27.511Z,97515.04
2022-09-12T23:52:58.303Z,97511.92
2022-09-12T23:55:29.741Z,97508.04
2022-09-12T23:58:00.679Z,97509.38
